FranceFixed distance
La Grande Course des Templiers
29 Oct2006
Distance
66km
Finishers
1,9011,733 men168 women
Winning time
6:34:56h
Median pace
6.24km/h
Pace distribution
1,901 finishers · 4.34–10.03 km/h · mean 6.40
Every finisher ran the same 66 km course, so these paces are directly comparable.
Histogram of finisher pace. 1,901 finishers ranged from 4.34 to 10.03 kilometres per hour, with a mean of 6.40 and a median of 6.24. The busiest band is 5.5 to 6.0 kilometres per hour, with 432 finishers.
Results
Ranks 1,651–1,700 of 1,901
| Rank | Runner | Time | Pace | Cat. | Placing |
|---|---|---|---|---|---|
| 1651 | Cassagnes, DannySwitzerlandWoman | 12:13:09h | 5.40 | W40 | 130th F · 23rd W40 |
| 1652 | Lagard, Pierre-YvesFranceMan | 12:13:35h | 5.40 | M40 | 1522nd M · 293rd M40 |
| 1653 | Tagliafico, BernadetteFranceWoman | 12:13:36h | 5.40 | — | 131st F |
| 1654 | Daurelle, ThierryFranceMan | 12:13:36h | 5.40 | M40 | 1523rd M · 294th M40 |
| 1655 | Boudenot, PatrickFranceMan | 12:14:01h | 5.39 | M50 | 1524th M · 113th M50 |
| 1656 | Godard, DominiqueFranceMan | 12:14:13h | 5.39 | M40 | 1525th M · 295th M40 |
| 1657 | Varlet, LaurentFranceMan | 12:14:13h | 5.39 | — | 1525th M |
| 1658 | Backes, VincentLuxembourgMan | 12:14:37h | 5.39 | M40 | 1527th M · 296th M40 |
| 1659 | Backes, Claire-LiseLuxembourgWoman | 12:14:37h | 5.39 | W45 | 132nd F · 18th W45 |
| 1660 | Beaumier, IsabelleFranceWoman | 12:14:41h | 5.39 | W45 | 133rd F · 19th W45 |
| 1661 | Marion, Marie-LaureFranceWoman | 12:14:42h | 5.39 | W40 | 134th F · 24th W40 |
| 1662 | Panaget, PhilippeFranceMan | 12:14:42h | 5.39 | M45 | 1528th M · 233rd M45 |
| 1663 | Marion, PatrickFranceMan | 12:14:43h | 5.39 | M45 | 1529th M · 234th M45 |
| 1664 | Georges, BernardFranceMan | 12:14:44h | 5.39 | M55 | 1530th M · 45th M55 |
| 1665 | Requet, HerveFranceMan | 12:14:44h | 5.39 | M35 | 1530th M · 273rd M35 |
| 1666 | Cleva, Jean-PierreFranceMan | 12:14:51h | 5.39 | M40 | 1532nd M · 297th M40 |
| 1667 | Lopez, Marie-CarmenFranceWoman | 12:15:00h | 5.39 | W35 | 135th F · 21st W35 |
| 1668 | Barre, VincentFranceMan | 12:15:04h | 5.39 | M40 | 1533rd M · 298th M40 |
| 1669 | Marcel, JoelFranceMan | 12:15:06h | 5.39 | M50 | 1534th M · 114th M50 |
| 1670 | Faup-Pelot, Anna-MarieFranceWoman | 12:15:13h | 5.39 | — | 136th F |
| 1671 | Spiguelaire, MoniqueFranceWoman | 12:15:13h | 5.39 | — | 136th F |
| 1672 | Vendewoorre, AlainFranceMan | 12:15:13h | 5.39 | M40 | 1535th M · 299th M40 |
| 1673 | Trossat, Michel (Miek)FranceMan | 12:15:20h | 5.38 | M55 | 1536th M · 46th M55 |
| 1674 | Chamaillard, LaurenceFranceWoman | 12:15:30h | 5.38 | W45 | 138th F · 20th W45 |
| 1675 | Herbert, CathyFranceWoman | 12:17:07h | 5.37 | W45 | 139th F · 21st W45 |
| 1676 | Lashermes, VincentFranceMan | 12:18:01h | 5.37 | — | 1537th M |
| 1677 | Risso, CarloItalyMan | 12:19:25h | 5.36 | M40 | 1538th M · 300th M40 |
| 1678 | Fauvel, Jean-RobertFranceMan | 12:19:39h | 5.35 | — | 1539th M |
| 1679 | Chiesa, ClaudineFranceWoman | 12:19:40h | 5.35 | W40 | 140th F · 25th W40 |
| 1680 | Mounier, AlainFranceMan | 12:19:41h | 5.35 | M45 | 1540th M · 235th M45 |
| 1681 | Lorente, BrunoFranceMan | 12:19:42h | 5.35 | M35 | 1541st M · 274th M35 |
| 1682 | Mounier, PatriceFranceMan | 12:19:42h | 5.35 | — | 1541st M |
| 1683 | Platet, Jean-LucFranceMan | 12:19:42h | 5.35 | M45 | 1541st M · 236th M45 |
| 1684 | Nimeskern, ChristopheFranceMan | 12:19:45h | 5.35 | M35 | 1544th M · 275th M35 |
| 1685 | Manceau, AndreFranceMan | 12:19:55h | 5.35 | — | 1545th M |
| 1686 | Delannoy, SebastienBelgiumMan | 12:19:57h | 5.35 | M23 | 1546th M · 281st M23 |
| 1687 | Romanus, NicolasBelgiumMan | 12:19:57h | 5.35 | — | 1546th M |
| 1688 | Raveu, MichelFranceMan | 12:20:10h | 5.35 | M40 | 1548th M · 301st M40 |
| 1689 | Decremp, GillesFranceMan | 12:20:17h | 5.35 | M45 | 1549th M · 237th M45 |
| 1690 | Dupre, MaryseFranceWoman | 12:20:26h | 5.35 | W50 | 141st F · 15th W50 |
| 1691 | Papazian, FrancoiseFranceWoman | 12:20:30h | 5.35 | W50 | 142nd F · 16th W50 |
| 1692 | Poulain, Jean-LucFranceMan | 12:20:38h | 5.35 | M35 | 1550th M · 276th M35 |
| 1693 | Richard, Marie-ChristineFranceWoman | 12:20:44h | 5.35 | W50 | 143rd F · 17th W50 |
| 1694 | Bonnamy, MarcFranceMan | 12:20:46h | 5.35 | M45 | 1551st M · 238th M45 |
| 1695 | Monmayoux, BrunoFranceMan | 12:20:49h | 5.34 | M45 | 1552nd M · 239th M45 |
| 1696 | Groslambert, Jean-LouisFranceMan | 12:20:49h | 5.34 | M60 | 1552nd M · 12th M60 |
| 1697 | Lanoir, SergeFranceMan | 12:20:50h | 5.34 | M45 | 1554th M · 240th M45 |
| 1698 | Ferrasse, YvesFranceMan | 12:21:04h | 5.34 | M45 | 1555th M · 241st M45 |
| 1699 | Masson, DanielFranceMan | 12:21:19h | 5.34 | M40 | 1556th M · 302nd M40 |
| 1700 | Henon, ChristopheFranceMan | 12:22:11h | 5.34 | M23 | 1557th M · 282nd M23 |
- 1651Cassagnes, DannySwitzerlandWoman130th F · 23rd W40Time12:13:09hPace5.40Cat.W40
- 1652Lagard, Pierre-YvesFranceMan1522nd M · 293rd M40Time12:13:35hPace5.40Cat.M40
- 1653Tagliafico, BernadetteFranceWoman131st FTime12:13:36hPace5.40
- 1654Daurelle, ThierryFranceMan1523rd M · 294th M40Time12:13:36hPace5.40Cat.M40
- 1655Boudenot, PatrickFranceMan1524th M · 113th M50Time12:14:01hPace5.39Cat.M50
- 1656Godard, DominiqueFranceMan1525th M · 295th M40Time12:14:13hPace5.39Cat.M40
- 1657Varlet, LaurentFranceMan1525th MTime12:14:13hPace5.39
- 1658Backes, VincentLuxembourgMan1527th M · 296th M40Time12:14:37hPace5.39Cat.M40
- 1659Backes, Claire-LiseLuxembourgWoman132nd F · 18th W45Time12:14:37hPace5.39Cat.W45
- 1660Beaumier, IsabelleFranceWoman133rd F · 19th W45Time12:14:41hPace5.39Cat.W45
- 1661Marion, Marie-LaureFranceWoman134th F · 24th W40Time12:14:42hPace5.39Cat.W40
- 1662Panaget, PhilippeFranceMan1528th M · 233rd M45Time12:14:42hPace5.39Cat.M45
- 1663Marion, PatrickFranceMan1529th M · 234th M45Time12:14:43hPace5.39Cat.M45
- 1664Georges, BernardFranceMan1530th M · 45th M55Time12:14:44hPace5.39Cat.M55
- 1665Requet, HerveFranceMan1530th M · 273rd M35Time12:14:44hPace5.39Cat.M35
- 1666Cleva, Jean-PierreFranceMan1532nd M · 297th M40Time12:14:51hPace5.39Cat.M40
- 1667Lopez, Marie-CarmenFranceWoman135th F · 21st W35Time12:15:00hPace5.39Cat.W35
- 1668Barre, VincentFranceMan1533rd M · 298th M40Time12:15:04hPace5.39Cat.M40
- 1669Marcel, JoelFranceMan1534th M · 114th M50Time12:15:06hPace5.39Cat.M50
- 1670Faup-Pelot, Anna-MarieFranceWoman136th FTime12:15:13hPace5.39
- 1671Spiguelaire, MoniqueFranceWoman136th FTime12:15:13hPace5.39
- 1672Vendewoorre, AlainFranceMan1535th M · 299th M40Time12:15:13hPace5.39Cat.M40
- 1673Trossat, Michel (Miek)FranceMan1536th M · 46th M55Time12:15:20hPace5.38Cat.M55
- 1674Chamaillard, LaurenceFranceWoman138th F · 20th W45Time12:15:30hPace5.38Cat.W45
- 1675Herbert, CathyFranceWoman139th F · 21st W45Time12:17:07hPace5.37Cat.W45
- 1676Lashermes, VincentFranceMan1537th MTime12:18:01hPace5.37
- 1677Risso, CarloItalyMan1538th M · 300th M40Time12:19:25hPace5.36Cat.M40
- 1678Fauvel, Jean-RobertFranceMan1539th MTime12:19:39hPace5.35
- 1679Chiesa, ClaudineFranceWoman140th F · 25th W40Time12:19:40hPace5.35Cat.W40
- 1680Mounier, AlainFranceMan1540th M · 235th M45Time12:19:41hPace5.35Cat.M45
- 1681Lorente, BrunoFranceMan1541st M · 274th M35Time12:19:42hPace5.35Cat.M35
- 1682Mounier, PatriceFranceMan1541st MTime12:19:42hPace5.35
- 1683Platet, Jean-LucFranceMan1541st M · 236th M45Time12:19:42hPace5.35Cat.M45
- 1684Nimeskern, ChristopheFranceMan1544th M · 275th M35Time12:19:45hPace5.35Cat.M35
- 1685Manceau, AndreFranceMan1545th MTime12:19:55hPace5.35
- 1686Delannoy, SebastienBelgiumMan1546th M · 281st M23Time12:19:57hPace5.35Cat.M23
- 1687Romanus, NicolasBelgiumMan1546th MTime12:19:57hPace5.35
- 1688Raveu, MichelFranceMan1548th M · 301st M40Time12:20:10hPace5.35Cat.M40
- 1689Decremp, GillesFranceMan1549th M · 237th M45Time12:20:17hPace5.35Cat.M45
- 1690Dupre, MaryseFranceWoman141st F · 15th W50Time12:20:26hPace5.35Cat.W50
- 1691Papazian, FrancoiseFranceWoman142nd F · 16th W50Time12:20:30hPace5.35Cat.W50
- 1692Poulain, Jean-LucFranceMan1550th M · 276th M35Time12:20:38hPace5.35Cat.M35
- 1693Richard, Marie-ChristineFranceWoman143rd F · 17th W50Time12:20:44hPace5.35Cat.W50
- 1694Bonnamy, MarcFranceMan1551st M · 238th M45Time12:20:46hPace5.35Cat.M45
- 1695Monmayoux, BrunoFranceMan1552nd M · 239th M45Time12:20:49hPace5.34Cat.M45
- 1696Groslambert, Jean-LouisFranceMan1552nd M · 12th M60Time12:20:49hPace5.34Cat.M60
- 1697Lanoir, SergeFranceMan1554th M · 240th M45Time12:20:50hPace5.34Cat.M45
- 1698Ferrasse, YvesFranceMan1555th M · 241st M45Time12:21:04hPace5.34Cat.M45
- 1699Masson, DanielFranceMan1556th M · 302nd M40Time12:21:19hPace5.34Cat.M40
- 1700Henon, ChristopheFranceMan1557th M · 282nd M23Time12:22:11hPace5.34Cat.M23
Showing ranks 1,651–1,700 of 1,901